sensor_id;sensor_type;location;lat;lon;timestamp;temperature;humidity
22544;DHT22;11438;52.044;8.716;2023-02-22T00:00:48;12.80;99.90
22544;DHT22;11438;52.044;8.716;2023-02-22T00:03:21;12.80;99.90
22544;DHT22;11438;52.044;8.716;2023-02-22T00:05:53;12.80;99.90
22544;DHT22;11438;52.044;8.716;2023-02-22T00:08:22;12.80;99.90
22544;DHT22;11438;52.044;8.716;2023-02-22T00:10:48;12.80;99.90
22544;DHT22;11438;52.044;8.716;2023-02-22T00:13:18;12.80;99.90
22544;DHT22;11438;52.044;8.716;2023-02-22T00:15:47;12.70;99.90
22544;DHT22;11438;52.044;8.716;2023-02-22T00:18:14;12.80;99.90
22544;DHT22;11438;52.044;8.716;2023-02-22T00:20:40;12.80;99.90
22544;DHT22;11438;52.044;8.716;2023-02-22T00:23:07;12.80;99.90
22544;DHT22;11438;52.044;8.716;2023-02-22T00:25:34;12.80;99.90
22544;DHT22;11438;52.044;8.716;2023-02-22T00:28:00;12.70;99.90
22544;DHT22;11438;52.044;8.716;2023-02-22T00:30:29;12.70;99.90
22544;DHT22;11438;52.044;8.716;2023-02-22T00:32:56;12.80;99.90
22544;DHT22;11438;52.044;8.716;2023-02-22T00:35:24;12.70;99.90
22544;DHT22;11438;52.044;8.716;2023-02-22T00:37:51;12.80;99.90
22544;DHT22;11438;52.044;8.716;2023-02-22T00:40:20;12.80;99.90
22544;DHT22;11438;52.044;8.716;2023-02-22T00:42:46;12.80;99.90
22544;DHT22;11438;52.044;8.716;2023-02-22T00:45:13;12.80;99.90
22544;DHT22;11438;52.044;8.716;2023-02-22T00:47:39;12.80;99.90
22544;DHT22;11438;52.044;8.716;2023-02-22T00:50:05;12.80;99.90
22544;DHT22;11438;52.044;8.716;2023-02-22T00:52:31;12.80;99.90
22544;DHT22;11438;52.044;8.716;2023-02-22T00:54:56;12.70;99.90
22544;DHT22;11438;52.044;8.716;2023-02-22T00:57:23;12.70;99.90
22544;DHT22;11438;52.044;8.716;2023-02-22T00:59:49;12.70;99.90
22544;DHT22;11438;52.044;8.716;2023-02-22T01:02:14;12.70;99.90
22544;DHT22;11438;52.044;8.716;2023-02-22T01:04:40;12.60;99.90
22544;DHT22;11438;52.044;8.716;2023-02-22T01:07:06;12.60;99.90
22544;DHT22;11438;52.044;8.716;2023-02-22T01:09:31;12.60;99.90
22544;DHT22;11438;52.044;8.716;2023-02-22T01:11:57;12.50;99.90
22544;DHT22;11438;52.044;8.716;2023-02-22T01:14:24;12.50;99.90
22544;DHT22;11438;52.044;8.716;2023-02-22T01:16:51;12.50;99.90
22544;DHT22;11438;52.044;8.716;2023-02-22T01:19:18;12.40;99.90
22544;DHT22;11438;52.044;8.716;2023-02-22T01:21:44;12.40;99.90
22544;DHT22;11438;52.044;8.716;2023-02-22T01:24:11;12.30;99.90
22544;DHT22;11438;52.044;8.716;2023-02-22T01:26:41;12.30;99.90
22544;DHT22;11438;52.044;8.716;2023-02-22T01:29:07;12.20;99.90
22544;DHT22;11438;52.044;8.716;2023-02-22T01:31:33;12.20;99.90
22544;DHT22;11438;52.044;8.716;2023-02-22T01:33:58;12.20;99.90
22544;DHT22;11438;52.044;8.716;2023-02-22T01:36:24;12.20;99.90
22544;DHT22;11438;52.044;8.716;2023-02-22T01:38:49;12.10;99.90
22544;DHT22;11438;52.044;8.716;2023-02-22T01:41:15;12.10;99.90
22544;DHT22;11438;52.044;8.716;2023-02-22T01:43:42;12.10;99.90
22544;DHT22;11438;52.044;8.716;2023-02-22T01:46:26;12.10;99.90
22544;DHT22;11438;52.044;8.716;2023-02-22T01:49:04;12.00;99.90
22544;DHT22;11438;52.044;8.716;2023-02-22T01:51:37;12.00;99.90
22544;DHT22;11438;52.044;8.716;2023-02-22T01:56:37;12.00;99.90
22544;DHT22;11438;52.044;8.716;2023-02-22T01:59:07;12.00;99.90
22544;DHT22;11438;52.044;8.716;2023-02-22T02:01:35;11.90;99.90
22544;DHT22;11438;52.044;8.716;2023-02-22T02:04:05;11.90;99.90
22544;DHT22;11438;52.044;8.716;2023-02-22T02:06:33;11.80;99.90
22544;DHT22;11438;52.044;8.716;2023-02-22T02:11:28;11.80;99.90
22544;DHT22;11438;52.044;8.716;2023-02-22T02:13:56;11.70;99.90
22544;DHT22;11438;52.044;8.716;2023-02-22T02:16:31;11.70;99.90
22544;DHT22;11438;52.044;8.716;2023-02-22T02:18:58;11.60;99.90
22544;DHT22;11438;52.044;8.716;2023-02-22T02:21:46;11.60;99.90
22544;DHT22;11438;52.044;8.716;2023-02-22T02:29:53;11.50;99.90
22544;DHT22;11438;52.044;8.716;2023-02-22T02:32:37;11.50;99.90
22544;DHT22;11438;52.044;8.716;2023-02-22T02:35:27;11.40;99.90
22544;DHT22;11438;52.044;8.716;2023-02-22T02:40:58;11.40;99.90
22544;DHT22;11438;52.044;8.716;2023-02-22T02:43:35;11.30;99.90
22544;DHT22;11438;52.044;8.716;2023-02-22T02:46:23;11.30;99.90
22544;DHT22;11438;52.044;8.716;2023-02-22T02:48:57;11.20;99.90
22544;DHT22;11438;52.044;8.716;2023-02-22T02:51:26;11.20;99.90
22544;DHT22;11438;52.044;8.716;2023-02-22T02:53:53;11.20;99.90
22544;DHT22;11438;52.044;8.716;2023-02-22T02:56:20;11.20;99.90
22544;DHT22;11438;52.044;8.716;2023-02-22T02:58:50;11.10;99.90
22544;DHT22;11438;52.044;8.716;2023-02-22T03:01:37;11.10;99.90
22544;DHT22;11438;52.044;8.716;2023-02-22T03:15:54;10.90;99.90
22544;DHT22;11438;52.044;8.716;2023-02-22T03:18:38;10.90;99.90
22544;DHT22;11438;52.044;8.716;2023-02-22T03:24:08;10.90;99.90
22544;DHT22;11438;52.044;8.716;2023-02-22T03:26:41;10.80;99.90
22544;DHT22;11438;52.044;8.716;2023-02-22T03:29:10;10.80;99.90
22544;DHT22;11438;52.044;8.716;2023-02-22T03:31:44;10.80;99.90
22544;DHT22;11438;52.044;8.716;2023-02-22T03:34:25;10.80;99.90
22544;DHT22;11438;52.044;8.716;2023-02-22T03:37:13;10.80;99.90
22544;DHT22;11438;52.044;8.716;2023-02-22T03:39:42;10.70;99.90
22544;DHT22;11438;52.044;8.716;2023-02-22T03:42:13;10.70;99.90
22544;DHT22;11438;52.044;8.716;2023-02-22T03:44:42;10.70;99.90
22544;DHT22;11438;52.044;8.716;2023-02-22T03:47:13;10.60;99.90
22544;DHT22;11438;52.044;8.716;2023-02-22T03:49:49;10.60;99.90
22544;DHT22;11438;52.044;8.716;2023-02-22T03:52:16;10.60;99.90
22544;DHT22;11438;52.044;8.716;2023-02-22T03:54:42;10.60;99.90
22544;DHT22;11438;52.044;8.716;2023-02-22T03:57:23;10.60;99.90
22544;DHT22;11438;52.044;8.716;2023-02-22T03:59:50;10.50;99.90
22544;DHT22;11438;52.044;8.716;2023-02-22T04:02:15;10.50;99.90
22544;DHT22;11438;52.044;8.716;2023-02-22T04:04:44;10.50;99.90
22544;DHT22;11438;52.044;8.716;2023-02-22T04:07:09;10.50;99.90
22544;DHT22;11438;52.044;8.716;2023-02-22T04:09:35;10.50;99.90
22544;DHT22;11438;52.044;8.716;2023-02-22T04:12:01;10.50;99.90
22544;DHT22;11438;52.044;8.716;2023-02-22T04:14:28;10.40;99.90
22544;DHT22;11438;52.044;8.716;2023-02-22T04:16:54;10.40;99.90
22544;DHT22;11438;52.044;8.716;2023-02-22T04:19:19;10.40;99.90
22544;DHT22;11438;52.044;8.716;2023-02-22T04:21:45;10.40;99.90
22544;DHT22;11438;52.044;8.716;2023-02-22T04:24:10;10.30;99.90
22544;DHT22;11438;52.044;8.716;2023-02-22T04:26:36;10.30;99.90
22544;DHT22;11438;52.044;8.716;2023-02-22T04:29:01;10.30;99.90
22544;DHT22;11438;52.044;8.716;2023-02-22T04:31:29;10.30;99.90
22544;DHT22;11438;52.044;8.716;2023-02-22T04:33:54;10.30;99.90
22544;DHT22;11438;52.044;8.716;2023-02-22T04:36:20;10.30;99.90
22544;DHT22;11438;52.044;8.716;2023-02-22T04:38:46;10.30;99.90
22544;DHT22;11438;52.044;8.716;2023-02-22T04:41:12;10.20;99.90
22544;DHT22;11438;52.044;8.716;2023-02-22T04:43:37;10.20;99.90
22544;DHT22;11438;52.044;8.716;2023-02-22T04:46:03;10.20;99.90
22544;DHT22;11438;52.044;8.716;2023-02-22T04:48:29;10.20;99.90
22544;DHT22;11438;52.044;8.716;2023-02-22T04:50:54;10.20;99.90
22544;DHT22;11438;52.044;8.716;2023-02-22T04:53:20;10.20;99.90
22544;DHT22;11438;52.044;8.716;2023-02-22T04:55:46;10.20;99.90
22544;DHT22;11438;52.044;8.716;2023-02-22T04:58:11;10.10;99.90
22544;DHT22;11438;52.044;8.716;2023-02-22T05:00:37;10.10;99.90
22544;DHT22;11438;52.044;8.716;2023-02-22T05:03:02;10.10;99.90
22544;DHT22;11438;52.044;8.716;2023-02-22T05:05:28;10.10;99.90
22544;DHT22;11438;52.044;8.716;2023-02-22T05:07:53;10.10;99.90
22544;DHT22;11438;52.044;8.716;2023-02-22T05:10:19;10.10;99.90
22544;DHT22;11438;52.044;8.716;2023-02-22T05:12:45;10.10;99.90
22544;DHT22;11438;52.044;8.716;2023-02-22T05:15:16;10.00;99.90
22544;DHT22;11438;52.044;8.716;2023-02-22T05:17:42;10.00;99.90
22544;DHT22;11438;52.044;8.716;2023-02-22T05:20:09;10.00;99.90
22544;DHT22;11438;52.044;8.716;2023-02-22T05:22:36;10.00;99.90
22544;DHT22;11438;52.044;8.716;2023-02-22T05:25:01;9.90;99.90
22544;DHT22;11438;52.044;8.716;2023-02-22T05:27:27;9.90;99.90
22544;DHT22;11438;52.044;8.716;2023-02-22T05:29:53;9.90;99.90
22544;DHT22;11438;52.044;8.716;2023-02-22T05:32:18;9.90;99.90
22544;DHT22;11438;52.044;8.716;2023-02-22T05:34:44;9.90;99.90
22544;DHT22;11438;52.044;8.716;2023-02-22T05:37:09;9.90;99.90
22544;DHT22;11438;52.044;8.716;2023-02-22T05:39:35;9.90;99.90
22544;DHT22;11438;52.044;8.716;2023-02-22T05:42:00;9.80;99.90
22544;DHT22;11438;52.044;8.716;2023-02-22T05:44:26;9.80;99.90
22544;DHT22;11438;52.044;8.716;2023-02-22T05:46:52;9.80;99.90
22544;DHT22;11438;52.044;8.716;2023-02-22T05:49:17;9.80;99.90
22544;DHT22;11438;52.044;8.716;2023-02-22T05:51:43;9.80;99.90
22544;DHT22;11438;52.044;8.716;2023-02-22T05:54:08;9.80;99.90
22544;DHT22;11438;52.044;8.716;2023-02-22T05:56:34;9.80;99.90
22544;DHT22;11438;52.044;8.716;2023-02-22T05:59:00;9.80;99.90
22544;DHT22;11438;52.044;8.716;2023-02-22T06:01:26;9.80;99.90
22544;DHT22;11438;52.044;8.716;2023-02-22T06:03:52;9.80;99.90
22544;DHT22;11438;52.044;8.716;2023-02-22T06:06:18;9.80;99.90
22544;DHT22;11438;52.044;8.716;2023-02-22T06:08:45;9.80;99.90
22544;DHT22;11438;52.044;8.716;2023-02-22T06:11:11;9.80;99.90
22544;DHT22;11438;52.044;8.716;2023-02-22T06:13:37;9.70;99.90
22544;DHT22;11438;52.044;8.716;2023-02-22T06:16:03;9.80;99.90
22544;DHT22;11438;52.044;8.716;2023-02-22T06:18:29;9.80;99.90
22544;DHT22;11438;52.044;8.716;2023-02-22T06:20:58;9.80;99.90
22544;DHT22;11438;52.044;8.716;2023-02-22T06:23:24;9.70;99.90
22544;DHT22;11438;52.044;8.716;2023-02-22T06:25:50;9.80;99.90
22544;DHT22;11438;52.044;8.716;2023-02-22T06:28:15;9.80;99.90
22544;DHT22;11438;52.044;8.716;2023-02-22T06:30:41;9.70;99.90
22544;DHT22;11438;52.044;8.716;2023-02-22T06:33:07;9.80;99.90
22544;DHT22;11438;52.044;8.716;2023-02-22T06:35:33;9.80;99.90
22544;DHT22;11438;52.044;8.716;2023-02-22T06:37:58;9.80;99.90
22544;DHT22;11438;52.044;8.716;2023-02-22T06:40:24;9.80;99.90
22544;DHT22;11438;52.044;8.716;2023-02-22T06:42:54;9.80;99.90
22544;DHT22;11438;52.044;8.716;2023-02-22T06:45:19;9.80;99.90
22544;DHT22;11438;52.044;8.716;2023-02-22T06:47:45;9.80;99.90
22544;DHT22;11438;52.044;8.716;2023-02-22T06:50:25;9.80;99.90
22544;DHT22;11438;52.044;8.716;2023-02-22T06:52:51;9.80;99.90
22544;DHT22;11438;52.044;8.716;2023-02-22T06:55:19;9.80;99.90
22544;DHT22;11438;52.044;8.716;2023-02-22T06:57:45;9.90;99.90
22544;DHT22;11438;52.044;8.716;2023-02-22T07:00:11;9.90;99.90
22544;DHT22;11438;52.044;8.716;2023-02-22T07:02:36;9.90;99.90
22544;DHT22;11438;52.044;8.716;2023-02-22T07:05:02;9.90;99.90
22544;DHT22;11438;52.044;8.716;2023-02-22T07:07:28;9.90;99.90
22544;DHT22;11438;52.044;8.716;2023-02-22T07:09:54;10.00;99.90
22544;DHT22;11438;52.044;8.716;2023-02-22T07:12:19;10.00;99.90
22544;DHT22;11438;52.044;8.716;2023-02-22T07:14:45;10.00;99.90
22544;DHT22;11438;52.044;8.716;2023-02-22T07:17:11;10.00;99.90
22544;DHT22;11438;52.044;8.716;2023-02-22T07:19:36;10.00;99.90
22544;DHT22;11438;52.044;8.716;2023-02-22T07:22:02;10.10;99.90
22544;DHT22;11438;52.044;8.716;2023-02-22T07:24:27;10.10;99.90
22544;DHT22;11438;52.044;8.716;2023-02-22T07:26:53;10.10;99.90
22544;DHT22;11438;52.044;8.716;2023-02-22T07:29:18;10.20;99.90
22544;DHT22;11438;52.044;8.716;2023-02-22T07:31:46;10.20;99.90
22544;DHT22;11438;52.044;8.716;2023-02-22T07:34:12;10.20;99.90
22544;DHT22;11438;52.044;8.716;2023-02-22T07:36:38;10.30;99.90
22544;DHT22;11438;52.044;8.716;2023-02-22T07:39:04;10.30;99.90
22544;DHT22;11438;52.044;8.716;2023-02-22T07:41:33;10.30;99.90
22544;DHT22;11438;52.044;8.716;2023-02-22T07:43:58;10.40;99.90
22544;DHT22;11438;52.044;8.716;2023-02-22T07:46:24;10.50;99.90
22544;DHT22;11438;52.044;8.716;2023-02-22T07:48:49;10.50;99.90
22544;DHT22;11438;52.044;8.716;2023-02-22T07:51:16;10.50;99.90
22544;DHT22;11438;52.044;8.716;2023-02-22T07:53:42;10.60;99.90
22544;DHT22;11438;52.044;8.716;2023-02-22T07:56:07;10.60;99.90
22544;DHT22;11438;52.044;8.716;2023-02-22T07:58:33;10.60;99.90
22544;DHT22;11438;52.044;8.716;2023-02-22T08:01:00;10.70;99.90
22544;DHT22;11438;52.044;8.716;2023-02-22T08:03:31;10.70;99.90
22544;DHT22;11438;52.044;8.716;2023-02-22T08:05:58;10.80;99.90
22544;DHT22;11438;52.044;8.716;2023-02-22T08:08:24;10.80;99.90
22544;DHT22;11438;52.044;8.716;2023-02-22T08:10:51;10.90;99.90
22544;DHT22;11438;52.044;8.716;2023-02-22T08:13:17;10.90;99.90
22544;DHT22;11438;52.044;8.716;2023-02-22T08:15:43;11.00;99.90
22544;DHT22;11438;52.044;8.716;2023-02-22T08:18:14;11.00;99.90
22544;DHT22;11438;52.044;8.716;2023-02-22T08:20:42;11.10;99.90
22544;DHT22;11438;52.044;8.716;2023-02-22T08:23:09;11.10;99.90
22544;DHT22;11438;52.044;8.716;2023-02-22T08:25:35;11.20;99.90
22544;DHT22;11438;52.044;8.716;2023-02-22T08:28:03;11.20;99.90
22544;DHT22;11438;52.044;8.716;2023-02-22T08:30:30;11.30;99.90
22544;DHT22;11438;52.044;8.716;2023-02-22T08:32:57;11.30;99.90
22544;DHT22;11438;52.044;8.716;2023-02-22T08:35:23;11.40;99.90
22544;DHT22;11438;52.044;8.716;2023-02-22T08:37:51;11.40;99.90
22544;DHT22;11438;52.044;8.716;2023-02-22T08:40:20;11.50;99.90
22544;DHT22;11438;52.044;8.716;2023-02-22T08:42:45;11.60;99.90
22544;DHT22;11438;52.044;8.716;2023-02-22T08:45:11;11.60;99.90
22544;DHT22;11438;52.044;8.716;2023-02-22T08:47:38;11.70;99.90
22544;DHT22;11438;52.044;8.716;2023-02-22T08:50:04;11.70;99.90
22544;DHT22;11438;52.044;8.716;2023-02-22T08:52:30;11.80;99.90
22544;DHT22;11438;52.044;8.716;2023-02-22T08:54:56;11.90;99.90
22544;DHT22;11438;52.044;8.716;2023-02-22T08:57:22;12.00;99.90
22544;DHT22;11438;52.044;8.716;2023-02-22T08:59:47;12.00;99.90
22544;DHT22;11438;52.044;8.716;2023-02-22T09:02:14;12.10;99.90
22544;DHT22;11438;52.044;8.716;2023-02-22T09:04:40;12.20;99.90
22544;DHT22;11438;52.044;8.716;2023-02-22T09:07:05;12.30;99.90
22544;DHT22;11438;52.044;8.716;2023-02-22T09:09:31;12.30;99.90
22544;DHT22;11438;52.044;8.716;2023-02-22T09:11:56;12.40;99.90
22544;DHT22;11438;52.044;8.716;2023-02-22T09:14:22;12.50;99.90
22544;DHT22;11438;52.044;8.716;2023-02-22T09:16:47;12.60;99.90
22544;DHT22;11438;52.044;8.716;2023-02-22T09:19:13;12.60;99.90
22544;DHT22;11438;52.044;8.716;2023-02-22T09:21:38;12.70;99.90
22544;DHT22;11438;52.044;8.716;2023-02-22T09:24:05;12.80;99.90
22544;DHT22;11438;52.044;8.716;2023-02-22T09:26:34;12.90;99.90
22544;DHT22;11438;52.044;8.716;2023-02-22T09:29:00;13.00;99.90
22544;DHT22;11438;52.044;8.716;2023-02-22T09:31:25;13.00;99.90
22544;DHT22;11438;52.044;8.716;2023-02-22T09:33:51;13.10;99.90
22544;DHT22;11438;52.044;8.716;2023-02-22T09:36:16;13.20;99.90
22544;DHT22;11438;52.044;8.716;2023-02-22T09:38:42;13.30;99.90
22544;DHT22;11438;52.044;8.716;2023-02-22T09:41:14;13.30;99.90
22544;DHT22;11438;52.044;8.716;2023-02-22T09:43:54;13.40;99.90
22544;DHT22;11438;52.044;8.716;2023-02-22T09:46:33;13.50;99.90
22544;DHT22;11438;52.044;8.716;2023-02-22T09:49:10;13.60;99.90
22544;DHT22;11438;52.044;8.716;2023-02-22T09:52:11;13.60;99.90
22544;DHT22;11438;52.044;8.716;2023-02-22T09:54:41;13.70;99.90
22544;DHT22;11438;52.044;8.716;2023-02-22T09:57:12;13.80;99.90
22544;DHT22;11438;52.044;8.716;2023-02-22T09:59:52;13.90;99.90
22544;DHT22;11438;52.044;8.716;2023-02-22T10:02:31;13.90;99.90
22544;DHT22;11438;52.044;8.716;2023-02-22T10:05:17;14.00;99.90
22544;DHT22;11438;52.044;8.716;2023-02-22T10:07:57;14.10;99.90
22544;DHT22;11438;52.044;8.716;2023-02-22T10:10:24;14.10;99.90
22544;DHT22;11438;52.044;8.716;2023-02-22T10:13:19;14.20;99.90
22544;DHT22;11438;52.044;8.716;2023-02-22T10:15:50;14.30;99.90
22544;DHT22;11438;52.044;8.716;2023-02-22T10:26:55;14.60;99.90
22544;DHT22;11438;52.044;8.716;2023-02-22T10:29:36;14.60;99.90
22544;DHT22;11438;52.044;8.716;2023-02-22T10:32:05;14.70;99.90
22544;DHT22;11438;52.044;8.716;2023-02-22T10:34:44;14.80;99.90
22544;DHT22;11438;52.044;8.716;2023-02-22T10:39:54;14.80;99.90
22544;DHT22;11438;52.044;8.716;2023-02-22T10:42:24;14.90;99.90
22544;DHT22;11438;52.044;8.716;2023-02-22T10:44:50;14.90;99.90
22544;DHT22;11438;52.044;8.716;2023-02-22T10:47:17;15.00;99.90
22544;DHT22;11438;52.044;8.716;2023-02-22T10:49:47;15.00;99.90
22544;DHT22;11438;52.044;8.716;2023-02-22T10:54:50;15.10;99.90
22544;DHT22;11438;52.044;8.716;2023-02-22T10:57:27;15.20;99.90
22544;DHT22;11438;52.044;8.716;2023-02-22T10:59:53;15.20;99.90
22544;DHT22;11438;52.044;8.716;2023-02-22T11:02:30;15.20;99.90
22544;DHT22;11438;52.044;8.716;2023-02-22T11:04:58;15.30;99.90
22544;DHT22;11438;52.044;8.716;2023-02-22T11:07:30;15.40;99.90
22544;DHT22;11438;52.044;8.716;2023-02-22T11:09:58;15.40;99.90
22544;DHT22;11438;52.044;8.716;2023-02-22T11:12:35;15.40;99.90
22544;DHT22;11438;52.044;8.716;2023-02-22T11:17:49;15.50;99.90
22544;DHT22;11438;52.044;8.716;2023-02-22T11:20:29;15.60;99.90
22544;DHT22;11438;52.044;8.716;2023-02-22T11:23:01;15.60;99.90
22544;DHT22;11438;52.044;8.716;2023-02-22T11:25:31;15.60;99.90
22544;DHT22;11438;52.044;8.716;2023-02-22T11:28:18;15.60;99.90
22544;DHT22;11438;52.044;8.716;2023-02-22T11:30:48;15.70;99.90
22544;DHT22;11438;52.044;8.716;2023-02-22T11:35:51;15.80;99.90
22544;DHT22;11438;52.044;8.716;2023-02-22T11:38:29;15.80;99.90
22544;DHT22;11438;52.044;8.716;2023-02-22T11:41:17;15.90;99.90
22544;DHT22;11438;52.044;8.716;2023-02-22T11:43:44;15.90;99.90
22544;DHT22;11438;52.044;8.716;2023-02-22T11:46:25;16.00;99.90
22544;DHT22;11438;52.044;8.716;2023-02-22T11:51:42;16.10;99.90
22544;DHT22;11438;52.044;8.716;2023-02-22T11:54:22;16.10;99.80
22544;DHT22;11438;52.044;8.716;2023-02-22T11:59:40;16.30;99.30
22544;DHT22;11438;52.044;8.716;2023-02-22T12:05:28;16.30;99.20
22544;DHT22;11438;52.044;8.716;2023-02-22T12:08:26;16.40;99.30
22544;DHT22;11438;52.044;8.716;2023-02-22T12:13:42;16.50;98.90
22544;DHT22;11438;52.044;8.716;2023-02-22T12:21:18;16.60;98.40
22544;DHT22;11438;52.044;8.716;2023-02-22T12:23:52;16.60;98.20
22544;DHT22;11438;52.044;8.716;2023-02-22T12:26:29;16.70;98.30
22544;DHT22;11438;52.044;8.716;2023-02-22T12:31:55;16.70;98.30
22544;DHT22;11438;52.044;8.716;2023-02-22T12:34:45;16.70;97.90
22544;DHT22;11438;52.044;8.716;2023-02-22T12:40:13;16.80;97.90
22544;DHT22;11438;52.044;8.716;2023-02-22T12:45:35;16.80;97.80
22544;DHT22;11438;52.044;8.716;2023-02-22T12:50:43;16.90;97.70
22544;DHT22;11438;52.044;8.716;2023-02-22T12:53:21;16.90;97.90
22544;DHT22;11438;52.044;8.716;2023-02-22T12:55:51;16.90;97.70
22544;DHT22;11438;52.044;8.716;2023-02-22T12:58:35;16.90;97.90
22544;DHT22;11438;52.044;8.716;2023-02-22T13:01:10;16.90;97.80
22544;DHT22;11438;52.044;8.716;2023-02-22T13:03:39;17.00;97.60
22544;DHT22;11438;52.044;8.716;2023-02-22T13:06:20;17.00;97.50
22544;DHT22;11438;52.044;8.716;2023-02-22T13:11:41;17.10;97.40
22544;DHT22;11438;52.044;8.716;2023-02-22T13:14:15;17.00;97.40
22544;DHT22;11438;52.044;8.716;2023-02-22T13:16:53;17.10;97.40
22544;DHT22;11438;52.044;8.716;2023-02-22T13:19:36;17.10;97.10
22544;DHT22;11438;52.044;8.716;2023-02-22T13:22:15;17.10;96.90
22544;DHT22;11438;52.044;8.716;2023-02-22T13:25:14;17.10;96.70
22544;DHT22;11438;52.044;8.716;2023-02-22T13:27:54;17.00;97.10
22544;DHT22;11438;52.044;8.716;2023-02-22T13:30:42;17.10;96.90
22544;DHT22;11438;52.044;8.716;2023-02-22T13:36:19;17.10;96.90
22544;DHT22;11438;52.044;8.716;2023-02-22T13:42:31;17.10;96.90
22544;DHT22;11438;52.044;8.716;2023-02-22T13:45:29;17.10;96.80
22544;DHT22;11438;52.044;8.716;2023-02-22T13:50:57;17.10;96.70
22544;DHT22;11438;52.044;8.716;2023-02-22T13:53:34;17.10;96.80
22544;DHT22;11438;52.044;8.716;2023-02-22T13:56:02;17.10;96.80
22544;DHT22;11438;52.044;8.716;2023-02-22T13:58:27;17.00;96.90
22544;DHT22;11438;52.044;8.716;2023-02-22T14:00:57;17.00;96.80
22544;DHT22;11438;52.044;8.716;2023-02-22T14:03:38;17.00;96.70
22544;DHT22;11438;52.044;8.716;2023-02-22T14:06:37;17.00;96.90
22544;DHT22;11438;52.044;8.716;2023-02-22T14:17:47;17.10;96.90
22544;DHT22;11438;52.044;8.716;2023-02-22T14:22:45;17.10;96.60
22544;DHT22;11438;52.044;8.716;2023-02-22T14:25:47;17.10;96.80
22544;DHT22;11438;52.044;8.716;2023-02-22T14:28:33;17.10;96.80
22544;DHT22;11438;52.044;8.716;2023-02-22T14:34:03;17.10;96.60
22544;DHT22;11438;52.044;8.716;2023-02-22T14:41:34;17.20;96.80
22544;DHT22;11438;52.044;8.716;2023-02-22T14:44:02;17.20;96.80
22544;DHT22;11438;52.044;8.716;2023-02-22T14:46:31;17.20;96.80
22544;DHT22;11438;52.044;8.716;2023-02-22T14:49:02;17.20;96.80
22544;DHT22;11438;52.044;8.716;2023-02-22T14:51:42;17.20;96.70
22544;DHT22;11438;52.044;8.716;2023-02-22T14:54:20;17.30;96.60
22544;DHT22;11438;52.044;8.716;2023-02-22T14:59:51;17.30;96.50
22544;DHT22;11438;52.044;8.716;2023-02-22T15:02:21;17.20;96.40
22544;DHT22;11438;52.044;8.716;2023-02-22T15:04:52;17.30;96.50
22544;DHT22;11438;52.044;8.716;2023-02-22T15:07:29;17.20;96.60
22544;DHT22;11438;52.044;8.716;2023-02-22T15:10:59;17.20;96.50
22544;DHT22;11438;52.044;8.716;2023-02-22T15:13:15;17.20;96.60
22544;DHT22;11438;52.044;8.716;2023-02-22T15:15:48;17.20;96.50
22544;DHT22;11438;52.044;8.716;2023-02-22T15:18:21;17.20;96.60
22544;DHT22;11438;52.044;8.716;2023-02-22T15:20:50;17.20;96.60
22544;DHT22;11438;52.044;8.716;2023-02-22T15:23:21;17.20;96.60
22544;DHT22;11438;52.044;8.716;2023-02-22T15:25:48;17.20;96.70
22544;DHT22;11438;52.044;8.716;2023-02-22T15:28:15;17.20;96.80
22544;DHT22;11438;52.044;8.716;2023-02-22T15:30:42;17.10;96.70
22544;DHT22;11438;52.044;8.716;2023-02-22T15:33:14;17.20;96.60
22544;DHT22;11438;52.044;8.716;2023-02-22T15:35:41;17.20;96.60
22544;DHT22;11438;52.044;8.716;2023-02-22T15:40:37;17.10;96.60
22544;DHT22;11438;52.044;8.716;2023-02-22T15:43:15;17.10;96.70
22544;DHT22;11438;52.044;8.716;2023-02-22T15:45:41;17.10;96.80
22544;DHT22;11438;52.044;8.716;2023-02-22T15:48:10;17.10;96.80
22544;DHT22;11438;52.044;8.716;2023-02-22T15:50:36;17.10;96.60
22544;DHT22;11438;52.044;8.716;2023-02-22T15:53:23;17.10;96.70
22544;DHT22;11438;52.044;8.716;2023-02-22T15:55:56;17.00;96.70
22544;DHT22;11438;52.044;8.716;2023-02-22T15:58:23;17.00;96.60
22544;DHT22;11438;52.044;8.716;2023-02-22T16:01:02;17.00;96.70
22544;DHT22;11438;52.044;8.716;2023-02-22T16:03:35;17.00;96.60
22544;DHT22;11438;52.044;8.716;2023-02-22T16:06:11;16.90;96.60
22544;DHT22;11438;52.044;8.716;2023-02-22T16:08:48;16.90;96.60
22544;DHT22;11438;52.044;8.716;2023-02-22T16:11:28;16.90;96.60
22544;DHT22;11438;52.044;8.716;2023-02-22T16:14:03;16.90;96.60
22544;DHT22;11438;52.044;8.716;2023-02-22T16:16:32;16.80;96.60
22544;DHT22;11438;52.044;8.716;2023-02-22T16:19:23;16.80;96.60
22544;DHT22;11438;52.044;8.716;2023-02-22T16:21:57;16.70;96.70
22544;DHT22;11438;52.044;8.716;2023-02-22T16:24:33;16.70;96.70
22544;DHT22;11438;52.044;8.716;2023-02-22T16:27:16;16.70;96.60
22544;DHT22;11438;52.044;8.716;2023-02-22T16:29:44;16.60;96.80
22544;DHT22;11438;52.044;8.716;2023-02-22T16:32:24;16.60;96.80
22544;DHT22;11438;52.044;8.716;2023-02-22T16:34:50;16.60;96.90
22544;DHT22;11438;52.044;8.716;2023-02-22T16:37:20;16.50;96.90
22544;DHT22;11438;52.044;8.716;2023-02-22T16:39:46;16.50;96.90
22544;DHT22;11438;52.044;8.716;2023-02-22T16:42:16;16.40;96.90
22544;DHT22;11438;52.044;8.716;2023-02-22T16:44:49;16.40;97.00
22544;DHT22;11438;52.044;8.716;2023-02-22T16:47:14;16.30;96.90
22544;DHT22;11438;52.044;8.716;2023-02-22T16:49:40;16.30;96.90
22544;DHT22;11438;52.044;8.716;2023-02-22T16:52:06;16.20;97.00
22544;DHT22;11438;52.044;8.716;2023-02-22T16:54:34;16.20;97.00
22544;DHT22;11438;52.044;8.716;2023-02-22T16:57:02;16.10;97.10
22544;DHT22;11438;52.044;8.716;2023-02-22T16:59:31;16.00;97.10
22544;DHT22;11438;52.044;8.716;2023-02-22T17:01:57;16.00;97.00
22544;DHT22;11438;52.044;8.716;2023-02-22T17:04:24;15.90;97.10
22544;DHT22;11438;52.044;8.716;2023-02-22T17:06:50;15.90;97.20
22544;DHT22;11438;52.044;8.716;2023-02-22T17:09:16;15.80;97.20
22544;DHT22;11438;52.044;8.716;2023-02-22T17:11:44;15.70;97.20
22544;DHT22;11438;52.044;8.716;2023-02-22T17:14:15;15.70;97.30
22544;DHT22;11438;52.044;8.716;2023-02-22T17:16:42;15.70;97.40
22544;DHT22;11438;52.044;8.716;2023-02-22T17:19:16;15.60;97.40
22544;DHT22;11438;52.044;8.716;2023-02-22T17:21:41;15.60;97.50
22544;DHT22;11438;52.044;8.716;2023-02-22T17:24:10;15.50;97.40
22544;DHT22;11438;52.044;8.716;2023-02-22T17:26:36;15.50;97.50
22544;DHT22;11438;52.044;8.716;2023-02-22T17:29:02;15.40;97.50
22544;DHT22;11438;52.044;8.716;2023-02-22T17:31:28;15.40;97.60
22544;DHT22;11438;52.044;8.716;2023-02-22T17:33:58;15.40;97.60
22544;DHT22;11438;52.044;8.716;2023-02-22T17:36:30;15.40;97.70
22544;DHT22;11438;52.044;8.716;2023-02-22T17:38:56;15.30;97.80
22544;DHT22;11438;52.044;8.716;2023-02-22T17:41:23;15.30;97.80
22544;DHT22;11438;52.044;8.716;2023-02-22T17:43:49;15.30;97.80